Morgan Center, Vermont
Current Conditions -  °F | °C
As of 7:55 PM on Saturday 20 Dec 2014 (Local Time) from KEFK Reporting Station
Clear Clear  
Wind Chill: 13°   Ceiling: Unl
Heat Index: 13°   Visibility: 7mi
Dew Point: 11°   Wind: 0mph
Humidity: 92%   Direction: NA
Pressure: 30.29"   Gusts: NA
Location:  44.8955°N, 71.9637°W
Report Text: KEFK 210055Z AUTO 00000KT 7SM CLR M11/M12 A3029 RMK AO2 T11071117
Loading
Personal Weather Stations






























Interactive Weather Map New forecast layout! Learn more

10-Day Weather Forecast

Advertisements
Track Severe Weather on mobile